Jacksonville International Airport Jacksonville US
ICAO: KJAX
IATA: JAX
Category: Large
Scheduled Services: Yes

Elevation: 30 ft
TransAlt. 18000 ft.

Airport Communications:
APP/DEP:118
ATIS:125.85
CLNC DEL:119.5
GND:121.9
ANG MAINT:25.125
ANG SOF:27.39
ANG COMD POST:25.125
TWR:118.3
UNICOM:122.95

KJAX Zoom In..

Runways:

(A) RW 08 length 10000 ft width 150 ft
ILS 110.70 / hdg 77

(B) RW 14 length 7701 ft width 150 ft
ILS 110.50 / hdg 137

(C) RW 26 length 10000 ft width 150 ft
ILS 110.30 / hdg 257

(D) RW 32 length 7701 ft width 150 ft
---- / hdg 317

Location; KJAX
Day. 16 / Time. 17.56 Zulu
* Altimeter: 30.04
* Temperature: 33° c. 91.4°f.
* Wind from: VRB° Speed 06 kn.
Dewpoint: 22° c.
Visibility: 10 Statute Miles.
Clouds: Few 3900 ft.
Clouds: Scattered 6000 ft.
Clouds: Scattered 15000 ft.
Clouds: Broken 25000 ft.
Conditions: Cumulonimbus.

KJAX 161756Z VRB06KT 10SM FEW039 SCT060 SCT150 BKN250 33/22 A3004 RMK AO2 SLP172 CB DSNT SW-W T03280222 10328 20256 58012


Wind From VRB°
Speed 06 kn.

 
 
jpsmedia.com for Web Design worldairports.se 2018   terms of use